Time;durP1;ratioP1;P1;durP2;ratioP2;P2;SDS_P1;SDS_P2;PMS_P1;PMS_P2;Temp;Humidity;BMP_temperature;BMP_pressure;BME280_temperature;BME280_humidity;BME280_pressure;Samples;Min_cycle;Max_cycle;Signal;HPM_P1;HPM_P2
2023/10/01 00:00:13;;;;;;;0.50;0.50;;;;;;;13.16;81.48;97827.25;29397;236;63000;-54
2023/10/01 00:00:55;;;;;;;0.50;0.50;;;;;;;13.16;81.46;97827.25;29396;202;63004;-55
2023/10/01 00:01:37;;;;;;;0.50;0.50;;;;;;;13.17;81.47;97828.84;29396;306;63000;-54
2023/10/01 00:02:15;;;;;;;0.50;0.50;;;;;;;13.17;81.45;97826.13;29417;209;64013;-65
2023/10/01 00:02:49;;;;;;;0.50;0.50;;;;;;;13.17;81.54;97820.66;29397;243;63005;-63
2023/10/01 00:03:22;;;;;;;0.40;0.40;;;;;;;13.17;81.53;97820.66;29396;202;63023;-55
2023/10/01 00:03:56;;;;;;;0.50;0.50;;;;;;;13.18;81.67;97824.19;29396;220;63005;-66
2023/10/01 00:04:27;;;;;;;0.50;0.50;;;;;;;13.18;81.53;97824.19;29397;226;63009;-65
2023/10/01 00:05:05;;;;;;;0.50;0.50;;;;;;;13.18;81.44;97830.47;29396;226;63005;-64
2023/10/01 00:05:44;;;;;;;0.50;0.50;;;;;;;13.18;81.67;97825.00;29396;293;63009;-63
2023/10/01 00:06:16;;;;;;;0.50;0.50;;;;;;;13.19;81.90;97826.66;29396;247;63005;-63
2023/10/01 00:06:59;;;;;;;0.50;0.50;;;;;;;13.20;81.91;97832.91;29396;242;63009;-54
2023/10/01 00:07:39;;;;;;;0.50;0.50;;;;;;;13.20;81.51;97827.44;29395;225;64009;-55
2023/10/01 00:08:12;;;;;;;0.50;0.50;;;;;;;13.22;81.46;97830.72;29396;203;63009;-54
2023/10/01 00:08:43;;;;;;;0.40;0.40;;;;;;;13.20;81.93;97831.00;29396;204;63004;-55
2023/10/01 00:09:19;;;;;;;0.40;0.40;;;;;;;13.21;81.72;97819.00;29396;218;63009;-66
2023/10/01 00:09:52;;;;;;;0.45;0.45;;;;;;;13.22;81.61;97823.34;29396;214;63004;-64
2023/10/01 00:10:25;;;;;;;0.40;0.40;;;;;;;13.23;81.60;97826.88;29396;218;63009;-54
2023/10/01 00:10:57;;;;;;;0.50;0.50;;;;;;;13.24;81.61;97831.22;29396;199;63016;-55
2023/10/01 00:11:28;;;;;;;0.40;0.40;;;;;;;13.22;81.29;97826.06;29396;250;63009;-64
2023/10/01 00:12:00;;;;;;;0.50;0.50;;;;;;;13.23;81.26;97827.69;29396;256;63005;-54
2023/10/01 00:12:31;;;;;;;0.50;0.50;;;;;;;13.23;81.64;97824.97;29397;235;63009;-55
2023/10/01 00:13:03;;;;;;;0.40;0.40;;;;;;;13.22;81.52;97828.78;29395;234;64009;-63
2023/10/01 00:13:39;;;;;;;0.40;0.40;;;;;;;13.21;81.22;97816.28;29396;203;63009;-66
2023/10/01 00:14:16;;;;;;;0.40;0.40;;;;;;;13.21;81.36;97829.91;29396;223;63005;-55
2023/10/01 00:14:47;;;;;;;0.47;0.47;;;;;;;13.20;81.72;97822.81;29396;251;63009;-63
2023/10/01 00:15:21;;;;;;;0.40;0.40;;;;;;;13.19;81.42;97829.37;29396;237;63004;-64
2023/10/01 00:15:55;;;;;;;0.40;0.40;;;;;;;13.19;81.35;97823.91;29396;202;63016;-66
2023/10/01 00:16:29;;;;;;;0.50;0.50;;;;;;;13.18;81.41;97824.19;29396;244;63004;-64
2023/10/01 00:17:00;;;;;;;0.50;0.50;;;;;;;13.17;81.58;97823.38;29396;210;63008;-54
2023/10/01 00:17:31;;;;;;;0.50;0.50;;;;;;;13.17;81.74;97830.78;29396;241;63011;-56
2023/10/01 00:18:06;;;;;;;0.40;0.40;;;;;;;13.17;81.68;97828.06;29396;257;64014;-64
2023/10/01 00:18:39;;;;;;;0.50;0.50;;;;;;;13.17;81.88;97828.06;29396;302;63005;-54
2023/10/01 00:19:10;;;;;;;0.50;0.50;;;;;;;13.16;81.79;97824.53;29396;267;63009;-65
2023/10/01 00:19:42;;;;;;;0.50;0.50;;;;;;;13.15;81.58;97825.59;29396;304;63017;-55
2023/10/01 00:20:22;;;;;;;0.50;0.50;;;;;;;13.15;81.48;97822.88;29396;233;63009;-55
2023/10/01 00:20:53;;;;;;;0.50;0.50;;;;;;;13.13;81.60;97822.34;29396;204;63005;-65
2023/10/01 00:21:33;;;;;;;0.50;0.50;;;;;;;13.13;81.96;97827.78;29396;244;63009;-55
2023/10/01 00:22:07;;;;;;;0.50;0.50;;;;;;;13.12;81.95;97826.16;29396;216;63004;-55
2023/10/01 00:22:39;;;;;;;0.45;0.45;;;;;;;13.11;81.79;97824.53;29396;206;63009;-63
2023/10/01 00:23:11;;;;;;;0.50;0.50;;;;;;;13.12;82.10;97828.87;29395;210;64009;-55
2023/10/01 00:23:43;;;;;;;0.50;0.50;;;;;;;13.11;82.04;97823.72;29396;285;63015;-65
2023/10/01 00:24:16;;;;;;;0.50;0.50;;;;;;;13.10;81.78;97820.19;29396;248;63004;-64
2023/10/01 00:24:48;;;;;;;0.50;0.50;;;;;;;13.09;81.96;97818.56;29396;219;63008;-64
2023/10/01 00:25:21;;;;;;;0.50;0.50;;;;;;;13.08;82.12;97822.38;29396;220;63005;-66
2023/10/01 00:25:54;;;;;;;0.50;0.50;;;;;;;13.09;82.10;97818.56;29396;315;63009;-64
2023/10/01 00:26:26;;;;;;;0.50;0.50;;;;;;;13.08;82.06;97816.94;29396;227;63005;-65
2023/10/01 00:26:57;;;;;;;0.50;0.50;;;;;;;13.08;82.11;97825.09;29396;294;63009;-55
2023/10/01 00:27:29;;;;;;;0.40;0.40;;;;;;;13.07;82.12;97816.13;29396;227;63011;-56
2023/10/01 00:28:03;;;;;;;0.47;0.47;;;;;;;13.08;82.34;97814.19;29396;230;63009;-56
2023/10/01 00:28:35;;;;;;;0.40;0.40;;;;;;;13.06;82.51;97817.22;29395;275;64009;-55
2023/10/01 00:29:06;;;;;;;0.50;0.50;;;;;;;13.06;82.26;97819.13;29396;225;63009;-55
2023/10/01 00:29:37;;;;;;;0.50;0.50;;;;;;;13.06;82.35;97811.75;29396;246;63004;-65
2023/10/01 00:30:11;;;;;;;0.40;0.40;;;;;;;13.06;82.10;97810.94;29396;230;63009;-54
2023/10/01 00:30:42;;;;;;;0.50;0.50;;;;;;;13.06;82.26;97813.66;29396;221;63004;-64
2023/10/01 00:31:14;;;;;;;0.40;0.40;;;;;;;13.04;82.47;97804.97;29396;220;63009;-64
2023/10/01 00:31:47;;;;;;;0.50;0.50;;;;;;;13.03;82.74;97812.34;29396;202;63004;-55
2023/10/01 00:32:18;;;;;;;0.50;0.50;;;;;;;13.03;83.15;97811.50;29396;237;63021;-63
2023/10/01 00:32:49;;;;;;;0.40;0.40;;;;;;;13.01;82.69;97813.72;29396;334;63005;-55
2023/10/01 00:33:22;;;;;;;0.40;0.40;;;;;;;13.01;82.84;97808.25;29396;197;63009;-54
2023/10/01 00:33:54;;;;;;;0.40;0.40;;;;;;;13.00;82.97;97812.09;29395;203;64009;-66
2023/10/01 00:34:25;;;;;;;0.40;0.40;;;;;;;13.00;83.20;97806.63;29396;220;63009;-63
2023/10/01 00:35:03;;;;;;;0.50;0.50;;;;;;;12.96;83.00;97811.03;29396;202;63005;-64
2023/10/01 00:35:38;;;;;;;0.50;0.50;;;;;;;12.92;83.21;97805.34;29396;223;63009;-55
2023/10/01 00:36:09;;;;;;;0.40;0.40;;;;;;;12.91;83.20;97817.31;29395;199;64009;-55
2023/10/01 00:36:41;;;;;;;0.40;0.40;;;;;;;12.89;83.64;97808.63;29396;196;63009;-55
2023/10/01 00:37:13;;;;;;;0.40;0.40;;;;;;;12.87;83.76;97807.28;29396;223;63004;-53
2023/10/01 00:37:44;;;;;;;0.50;0.50;;;;;;;12.86;83.61;97811.09;29396;204;63009;-54
2023/10/01 00:38:16;;;;;;;0.50;0.50;;;;;;;12.85;83.59;97804.84;29396;212;63004;-54
2023/10/01 00:38:48;;;;;;;0.40;0.40;;;;;;;12.85;83.51;97809.47;29396;221;63009;-55
2023/10/01 00:39:19;;;;;;;0.45;0.45;;;;;;;12.85;83.81;97812.19;29396;220;63004;-54
2023/10/01 00:39:54;;;;;;;0.50;0.50;;;;;;;12.85;83.55;97817.66;29396;220;63008;-54
2023/10/01 00:40:27;;;;;;;0.40;0.40;;;;;;;12.84;84.21;97814.13;29396;225;63017;-61
2023/10/01 00:40:58;;;;;;;0.50;0.50;;;;;;;12.84;83.90;97813.28;29395;267;64014;-54
2023/10/01 00:41:30;;;;;;;0.40;0.40;;;;;;;12.84;83.96;97819.56;29396;222;63005;-64
2023/10/01 00:42:02;;;;;;;0.40;0.40;;;;;;;12.83;83.62;97811.66;29396;217;63009;-55
2023/10/01 00:42:35;;;;;;;0.40;0.40;;;;;;;12.82;83.76;97816.31;29396;208;63005;-62
2023/10/01 00:43:06;;;;;;;0.50;0.50;;;;;;;12.80;83.62;97813.09;29396;204;63009;-55
2023/10/01 00:43:37;;;;;;;0.62;0.62;;;;;;;12.80;84.01;97817.72;29396;204;63005;-55
2023/10/01 00:44:09;;;;;;;0.40;0.40;;;;;;;12.79;84.06;97816.09;29396;197;63009;-56
2023/10/01 00:44:40;;;;;;;0.50;0.50;;;;;;;12.77;84.09;97819.09;29396;253;63004;-64
2023/10/01 00:45:13;;;;;;;0.50;0.50;;;;;;;12.77;83.92;97812.84;29396;273;63009;-54
2023/10/01 00:45:45;;;;;;;0.50;0.50;;;;;;;12.77;84.48;97812.84;29396;254;63018;-55
2023/10/01 00:46:18;;;;;;;0.40;0.40;;;;;;;12.74;84.34;97815.03;29395;196;64002;-55
2023/10/01 00:46:49;;;;;;;0.40;0.40;;;;;;;12.73;84.78;97815.31;29396;196;63004;-55
2023/10/01 00:47:21;;;;;;;0.47;0.47;;;;;;;12.71;84.35;97814.78;29396;226;63008;-56
2023/10/01 00:47:53;;;;;;;0.50;0.50;;;;;;;12.69;84.80;97814.25;29396;217;63004;-55
2023/10/01 00:48:25;;;;;;;0.50;0.50;;;;;;;12.68;84.91;97818.88;29396;249;63009;-55
2023/10/01 00:49:00;;;;;;;0.40;0.40;;;;;;;12.66;84.91;97818.34;29396;238;63005;-55
2023/10/01 00:49:39;;;;;;;0.50;0.50;;;;;;;12.66;85.00;97818.34;29396;242;63024;-55
2023/10/01 00:50:21;;;;;;;0.50;0.50;;;;;;;12.62;85.49;97816.47;29397;196;63005;-55
2023/10/01 00:50:54;;;;;;;0.50;0.50;;;;;;;12.60;85.33;97813.22;29397;211;63023;-55
2023/10/01 00:51:26;;;;;;;0.50;0.50;;;;;;;12.60;85.63;97816.75;29395;210;64009;-54
2023/10/01 00:52:00;;;;;;;0.50;0.50;;;;;;;12.59;85.52;97823.28;29397;206;63017;-53
2023/10/01 00:52:31;;;;;;;0.50;0.50;;;;;;;12.58;85.52;97821.66;29397;249;63004;-64
2023/10/01 00:53:03;;;;;;;0.50;0.50;;;;;;;12.56;85.95;97829.31;29397;226;63019;-54
2023/10/01 00:53:35;;;;;;;0.50;0.50;;;;;;;12.55;85.78;97814.06;29397;203;63004;-62
2023/10/01 00:54:09;;;;;;;0.50;0.50;;;;;;;12.55;85.96;97821.41;29397;210;63009;-54
2023/10/01 00:54:41;;;;;;;0.50;0.50;;;;;;;12.53;85.83;97820.87;29397;207;63004;-54
2023/10/01 00:55:13;;;;;;;0.50;0.50;;;;;;;12.51;85.68;97815.72;29395;267;63008;-54
2023/10/01 00:55:45;;;;;;;0.50;0.50;;;;;;;12.50;86.19;97819.53;29395;198;63005;-54
2023/10/01 00:56:17;;;;;;;0.50;0.50;;;;;;;12.49;86.16;97814.37;29395;251;63009;-55
2023/10/01 00:56:50;;;;;;;0.50;0.50;;;;;;;12.48;86.43;97816.28;29393;200;64009;-65
2023/10/01 00:57:22;;;;;;;0.50;0.50;;;;;;;12.47;86.26;97814.69;29395;214;63009;-56
2023/10/01 00:57:54;;;;;;;0.40;0.40;;;;;;;12.46;86.62;97812.25;29395;206;63011;-55
2023/10/01 00:58:25;;;;;;;0.50;0.50;;;;;;;12.44;86.80;97817.16;29393;229;64013;-54
2023/10/01 00:58:58;;;;;;;0.45;0.45;;;;;;;12.43;86.39;97819.06;29395;218;63004;-53
2023/10/01 00:59:32;;;;;;;0.50;0.50;;;;;;;12.43;86.79;97813.63;29395;244;63009;-54
2023/10/01 01:00:13;;;;;;;0.50;0.50;;;;;;;12.41;86.68;97810.38;29395;197;63004;-54
2023/10/01 01:00:49;;;;;;;0.50;0.50;;;;;;;12.41;87.16;97815.81;29417;212;63009;-65
2023/10/01 01:01:26;;;;;;;0.50;0.50;;;;;;;12.41;86.93;97815.81;29395;248;63004;-54
2023/10/01 01:01:57;;;;;;;0.50;0.50;;;;;;;12.39;86.88;97816.09;29393;206;64013;-54
2023/10/01 01:02:30;;;;;;;0.40;0.40;;;;;;;12.38;87.10;97819.09;29395;264;63004;-54
2023/10/01 01:03:18;;;;;;;0.50;0.50;;;;;;;12.36;87.16;97807.69;29395;265;63009;-55
2023/10/01 01:03:52;;;;;;;0.50;0.50;;;;;;;12.37;87.23;97814.75;29395;239;63005;-54
2023/10/01 01:04:24;;;;;;;0.50;0.50;;;;;;;12.37;87.55;97814.75;29395;240;63009;-54
2023/10/01 01:05:19;;;;;;;0.50;0.50;;;;;;;12.36;87.25;97807.69;29395;244;63010;-54
2023/10/01 01:06:52;;;;;;;0.50;0.50;;;;;;;12.30;87.23;97803.34;29393;202;64024;-55
2023/10/01 01:07:25;;;;;;;0.50;0.50;;;;;;;12.33;87.23;97809.06;29395;214;63009;-56
2023/10/01 01:08:00;;;;;;;0.50;0.50;;;;;;;12.34;87.28;97809.88;29395;207;63004;-55
2023/10/01 01:08:46;;;;;;;0.50;0.50;;;;;;;12.33;87.32;97813.69;29395;249;63009;-55
2023/10/01 01:09:20;;;;;;;0.50;0.50;;;;;;;12.25;87.18;97797.94;29395;242;63004;-55
2023/10/01 01:09:51;;;;;;;0.50;0.50;;;;;;;12.30;87.50;97814.25;29395;202;63028;-55
2023/10/01 01:10:26;;;;;;;0.40;0.40;;;;;;;12.28;87.26;97810.97;29395;263;63005;-56
2023/10/01 01:11:00;;;;;;;0.40;0.40;;;;;;;12.28;87.64;97805.53;29395;292;63027;-56
2023/10/01 01:11:32;;;;;;;0.62;0.62;;;;;;;12.26;87.42;97818.63;29393;223;64009;-55
2023/10/01 01:12:05;;;;;;;0.50;0.50;;;;;;;12.26;87.44;97813.16;29395;223;63009;-54
2023/10/01 01:12:38;;;;;;;0.50;0.50;;;;;;;12.25;87.30;97816.97;29395;242;63005;-54
2023/10/01 01:13:16;;;;;;;0.50;0.50;;;;;;;12.23;87.88;97806.37;29395;224;63009;-53
2023/10/01 01:13:51;;;;;;;0.40;0.40;;;;;;;12.23;87.75;97808.28;29395;279;63019;-54
2023/10/01 01:14:22;;;;;;;0.50;0.50;;;;;;;12.21;87.61;97811.28;29395;212;63017;-54
2023/10/01 01:14:54;;;;;;;0.50;0.50;;;;;;;12.22;87.88;97806.66;29394;219;64004;-54
2023/10/01 01:15:27;;;;;;;0.40;0.40;;;;;;;12.22;87.59;97812.09;29395;252;63009;-64
2023/10/01 01:16:00;;;;;;;0.50;0.50;;;;;;;12.21;87.41;97810.47;29395;238;63004;-54
2023/10/01 01:16:31;;;;;;;0.47;0.47;;;;;;;12.20;87.88;97811.56;29395;292;63024;-54
2023/10/01 01:17:04;;;;;;;0.50;0.50;;;;;;;12.20;nan;97812.38;29393;266;64008;-54
2023/10/01 01:17:36;;;;;;;0.50;0.50;;;;;;;12.20;87.83;97808.84;29395;225;63024;-54
2023/10/01 01:18:13;;;;;;;0.50;0.50;;;;;;;12.19;87.87;97813.47;29395;224;63005;-54
2023/10/01 01:18:46;;;;;;;0.50;0.50;;;;;;;12.19;87.91;97812.66;29395;199;63009;-53
2023/10/01 01:19:19;;;;;;;0.50;0.50;;;;;;;12.19;87.80;97809.94;29395;204;63005;-54
2023/10/01 01:19:52;;;;;;;0.50;0.50;;;;;;;12.19;87.91;97818.09;29395;226;63009;-54
2023/10/01 01:20:30;;;;;;;0.40;0.40;;;;;;;12.17;88.03;97821.09;29395;227;63005;-55
2023/10/01 01:21:08;;;;;;;0.50;0.50;;;;;;;12.16;88.23;97818.66;29395;233;63009;-54
2023/10/01 01:21:44;;;;;;;0.50;0.50;;;;;;;12.15;88.28;97817.03;29395;228;63004;-54
2023/10/01 01:22:28;;;;;;;0.50;0.50;;;;;;;12.14;88.05;97820.84;29393;241;64013;-65
2023/10/01 01:22:59;;;;;;;0.50;0.50;;;;;;;12.13;87.83;97819.25;29395;255;63004;-54
2023/10/01 01:23:33;;;;;;;0.50;0.50;;;;;;;12.14;87.96;97820.84;29395;202;63009;-54
2023/10/01 01:24:07;;;;;;;0.50;0.50;;;;;;;12.13;88.08;97814.59;29395;219;63004;-54
2023/10/01 01:24:39;;;;;;;0.50;0.50;;;;;;;12.13;88.21;97816.53;29395;233;63008;-54
2023/10/01 01:25:20;;;;;;;0.50;0.50;;;;;;;12.13;88.16;97814.59;29395;200;63005;-54
2023/10/01 01:25:54;;;;;;;0.50;0.50;;;;;;;12.13;88.15;97819.25;29417;240;63025;-64
2023/10/01 01:26:25;;;;;;;0.50;0.50;;;;;;;12.14;88.27;97815.41;29393;287;64009;-54
2023/10/01 01:27:00;;;;;;;0.50;0.50;;;;;;;12.14;88.07;97820.84;29395;209;63009;-54
2023/10/01 01:27:32;;;;;;;0.50;0.50;;;;;;;12.15;87.96;97822.47;29395;220;63005;-54
2023/10/01 01:28:12;;;;;;;0.50;0.50;;;;;;;12.14;88.34;97816.22;29395;237;63009;-55
2023/10/01 01:28:44;;;;;;;0.50;0.50;;;;;;;12.15;88.10;97817.03;29417;230;63005;-54
2023/10/01 01:29:29;;;;;;;0.50;0.50;;;;;;;12.15;88.29;97817.03;29395;239;63009;-54
2023/10/01 01:30:06;;;;;;;0.50;0.50;;;;;;;12.15;88.56;97814.31;29395;215;63017;-54
2023/10/01 01:30:42;;;;;;;0.50;0.50;;;;;;;12.16;87.95;97808.59;29395;202;63024;-55
2023/10/01 01:31:16;;;;;;;0.50;0.50;;;;;;;12.17;87.90;97804.78;29395;252;63004;-54
2023/10/01 01:32:02;;;;;;;0.50;0.50;;;;;;;12.19;88.22;97807.22;29394;216;64013;-54
2023/10/01 01:32:36;;;;;;;0.40;0.40;;;;;;;12.20;87.98;97798.78;29395;205;63005;-54
2023/10/01 01:33:07;;;;;;;0.50;0.50;;;;;;;12.20;88.13;97808.84;29395;274;63009;-54
2023/10/01 01:33:44;;;;;;;0.50;0.50;;;;;;;12.20;87.78;97803.41;29395;220;63005;-54
2023/10/01 01:34:15;;;;;;;0.50;0.50;;;;;;;12.19;87.88;97812.66;29395;218;63009;-55
2023/10/01 01:34:47;;;;;;;0.50;0.50;;;;;;;12.20;88.06;97808.84;29395;203;63005;-54
2023/10/01 01:35:27;;;;;;;0.45;0.45;;;;;;;12.20;87.87;97808.84;29395;203;63009;-65
2023/10/01 01:36:00;;;;;;;0.50;0.50;;;;;;;12.20;87.73;97803.41;29417;261;63005;-54
2023/10/01 01:36:31;;;;;;;0.50;0.50;;;;;;;12.19;87.82;97807.22;29395;202;63009;-62
2023/10/01 01:37:05;;;;;;;0.50;0.50;;;;;;;12.18;87.39;97805.59;29394;244;64009;-63
2023/10/01 01:37:46;;;;;;;0.50;0.50;;;;;;;12.19;87.61;97810.75;29395;242;63009;-54
2023/10/01 01:38:17;;;;;;;0.50;0.50;;;;;;;12.18;87.78;97800.97;29417;224;63004;-53
2023/10/01 01:39:26;;;;;;;0.50;0.50;;;;;;;12.19;87.82;97810.75;29395;254;63009;-54
2023/10/01 01:39:57;;;;;;;0.50;0.50;;;;;;;12.19;nan;97810.75;29395;207;63009;-54
2023/10/01 01:40:31;;;;;;;0.50;0.50;;;;;;;12.20;87.78;97808.84;29395;203;63016;-54
2023/10/01 01:41:03;;;;;;;0.47;0.47;;;;;;;12.20;87.86;97817.00;29395;206;63005;-54
2023/10/01 01:41:34;;;;;;;0.50;0.50;;;;;;;12.19;87.88;97801.78;29395;238;63012;-54
2023/10/01 01:42:06;;;;;;;0.50;0.50;;;;;;;12.19;87.68;97799.06;29394;223;64013;-54
2023/10/01 01:42:38;;;;;;;0.50;0.50;;;;;;;12.20;87.72;97811.56;29395;224;63005;-54
2023/10/01 01:43:15;;;;;;;0.50;0.50;;;;;;;12.21;87.90;97810.47;29395;251;63009;-54
2023/10/01 01:43:50;;;;;;;0.50;0.50;;;;;;;12.22;87.76;97807.47;29395;197;63005;-54
2023/10/01 01:44:23;;;;;;;0.50;0.50;;;;;;;12.22;87.50;97806.66;29395;274;63027;-55
2023/10/01 01:45:19;;;;;;;0.50;0.50;;;;;;;12.24;87.83;97804.47;29394;204;64009;-55
2023/10/01 01:46:00;;;;;;;0.50;0.50;;;;;;;12.24;87.51;97801.75;29394;227;64009;-54
2023/10/01 01:46:31;;;;;;;;;;;;;;;12.23;87.65;97802.84;29996;983;6000;-55
2023/10/01 01:47:07;;;;;;;0.50;0.50;;;;;;;12.21;87.79;97799.59;29422;263;63004;-55
2023/10/01 01:47:39;;;;;;;0.50;0.50;;;;;;;12.20;87.88;97803.41;29395;213;63009;-65
2023/10/01 01:49:19;;;;;;;0.50;0.50;;;;;;;12.19;87.59;97801.78;29395;203;63009;-54
2023/10/01 01:49:50;;;;;;;0.50;0.50;;;;;;;12.21;87.58;97799.59;29395;216;63005;-64
2023/10/01 01:50:26;;;;;;;0.50;0.50;;;;;;;12.20;87.51;97803.41;29394;202;64013;-55
2023/10/01 01:51:00;;;;;;;0.50;0.50;;;;;;;12.19;87.58;97802.59;29395;247;63005;-66
2023/10/01 01:51:31;;;;;;;0.50;0.50;;;;;;;12.20;87.46;97792.53;29395;197;63009;-64
2023/10/01 01:52:03;;;;;;;0.50;0.50;;;;;;;12.20;87.56;97800.69;29395;221;63017;-54
2023/10/01 01:52:36;;;;;;;0.50;0.50;;;;;;;12.19;87.57;97807.22;29395;239;63009;-56
2023/10/01 01:53:11;;;;;;;0.50;0.50;;;;;;;12.19;87.24;97801.78;29395;226;63004;-56
2023/10/01 01:53:46;;;;;;;0.50;0.50;;;;;;;12.19;87.50;97796.34;29395;212;63009;-55
2023/10/01 01:54:18;;;;;;;0.50;0.50;;;;;;;12.19;87.68;97801.78;29395;215;63004;-55
2023/10/01 01:54:50;;;;;;;0.50;0.50;;;;;;;12.20;87.37;97797.97;29395;196;63008;-55
2023/10/01 01:55:23;;;;;;;0.50;0.50;;;;;;;12.20;87.58;97793.34;29394;211;64009;-55
2023/10/01 01:55:56;;;;;;;0.50;0.50;;;;;;;12.22;87.62;97802.03;29395;218;63009;-55
2023/10/01 01:56:27;;;;;;;0.50;0.50;;;;;;;12.22;87.90;97801.22;29395;200;63005;-55
2023/10/01 01:57:00;;;;;;;0.50;0.50;;;;;;;12.22;87.42;97796.59;29395;219;63009;-55
2023/10/01 01:57:31;;;;;;;0.50;0.50;;;;;;;12.23;87.51;97790.06;29395;198;63005;-56
2023/10/01 01:58:09;;;;;;;0.50;0.50;;;;;;;12.23;87.42;97797.41;29395;276;63009;-54
2023/10/01 01:58:43;;;;;;;0.50;0.50;;;;;;;12.24;87.67;97788.16;29395;228;63005;-55
2023/10/01 01:59:16;;;;;;;0.50;0.50;;;;;;;12.25;87.59;97795.22;29395;265;63009;-55
2023/10/01 01:59:47;;;;;;;0.50;0.50;;;;;;;12.26;87.57;97792.22;29395;234;63004;-56
2023/10/01 02:00:21;;;;;;;0.50;0.50;;;;;;;12.27;87.39;97790.31;29395;197;63009;-54
2023/10/01 02:01:08;;;;;;;0.40;0.40;;;;;;;12.28;87.29;97790.03;29394;229;64009;-56
2023/10/01 02:01:39;;;;;;;0.50;0.50;;;;;;;12.28;87.51;97786.50;29395;220;63023;-53
2023/10/01 02:02:11;;;;;;;0.50;0.50;;;;;;;12.28;87.29;97783.78;29395;260;63011;-54
2023/10/01 02:02:59;;;;;;;0.50;0.50;;;;;;;12.28;87.21;97784.59;29395;236;63009;-54
2023/10/01 02:03:32;;;;;;;0.50;0.50;;;;;;;12.27;87.22;97787.59;29395;256;63018;-55
2023/10/01 02:04:04;;;;;;;0.47;0.47;;;;;;;12.28;87.29;97778.31;29395;202;63009;-54
2023/10/01 02:04:58;;;;;;;0.50;0.50;;;;;;;12.27;86.84;97785.69;29395;227;63005;-54
2023/10/01 02:05:29;;;;;;;0.50;0.50;;;;;;;12.28;87.05;97779.12;29395;199;63009;-54
2023/10/01 02:06:01;;;;;;;0.50;0.50;;;;;;;12.27;87.12;97776.69;29394;218;63999;-56
2023/10/01 02:06:33;;;;;;;0.50;0.50;;;;;;;12.27;86.97;97780.22;29395;226;63009;-54
2023/10/01 02:07:06;;;;;;;0.50;0.50;;;;;;;12.26;86.73;97773.16;29395;214;63017;-62
2023/10/01 02:07:37;;;;;;;0.50;0.50;;;;;;;12.26;86.80;97780.50;29395;272;63009;-54
2023/10/01 02:08:23;;;;;;;0.50;0.50;;;;;;;12.26;87.25;97780.50;29395;205;63004;-54
2023/10/01 02:08:57;;;;;;;0.50;0.50;;;;;;;12.28;87.42;97778.31;29395;230;63008;-54
2023/10/01 02:09:30;;;;;;;0.50;0.50;;;;;;;12.28;87.02;97786.50;29395;289;63004;-54
2023/10/01 02:10:04;;;;;;;0.50;0.50;;;;;;;12.28;87.13;97778.31;29395;217;63008;-55
2023/10/01 02:10:45;;;;;;;0.50;0.50;;;;;;;12.27;86.89;97771.25;29395;220;63005;-54
2023/10/01 02:11:19;;;;;;;0.50;0.50;;;;;;;12.27;86.83;97782.13;29415;339;64013;-54
2023/10/01 02:11:52;;;;;;;0.50;0.50;;;;;;;12.26;87.02;97781.31;29395;235;63014;-54
2023/10/01 02:12:24;;;;;;;0.50;0.50;;;;;;;12.27;86.98;97776.69;29395;212;63009;-54
2023/10/01 02:12:55;;;;;;;0.50;0.50;;;;;;;12.28;86.93;97781.06;29395;216;63005;-54
2023/10/01 02:13:27;;;;;;;0.50;0.50;;;;;;;12.28;87.29;97778.31;29395;210;63009;-54
2023/10/01 02:13:59;;;;;;;0.50;0.50;;;;;;;12.27;87.17;97773.97;29395;241;63004;-54
2023/10/01 02:14:31;;;;;;;0.40;0.40;;;;;;;12.27;86.75;97782.97;29394;263;64013;-54
2023/10/01 02:15:07;;;;;;;0.40;0.40;;;;;;;12.27;87.12;97784.88;29395;242;63004;-54
2023/10/01 02:15:38;;;;;;;0.50;0.50;;;;;;;12.27;87.15;97780.22;29395;216;63009;-54
2023/10/01 02:16:30;;;;;;;0.50;0.50;;;;;;;12.27;86.95;97782.13;29395;241;63004;-54
2023/10/01 02:17:21;;;;;;;0.50;0.50;;;;;;;12.26;86.88;97777.78;29417;308;63009;-55
2023/10/01 02:17:53;;;;;;;0.50;0.50;;;;;;;12.26;87.07;97780.50;29416;244;64009;-54
2023/10/01 02:18:26;;;;;;;0.50;0.50;;;;;;;12.26;87.17;97780.50;29395;238;63009;-54
2023/10/01 02:19:21;;;;;;;0.40;0.40;;;;;;;12.25;87.03;97779.69;29395;251;63005;-54
2023/10/01 02:20:27;;;;;;;0.50;0.50;;;;;;;12.27;86.79;97776.69;29394;216;64013;-54
2023/10/01 02:20:59;;;;;;;0.50;0.50;;;;;;;12.27;86.98;97776.69;29395;246;63005;-54
2023/10/01 02:22:20;;;;;;;0.50;0.50;;;;;;;12.26;87.33;97775.06;29395;197;63004;-54
2023/10/01 02:22:52;;;;;;;0.50;0.50;;;;;;;12.26;86.97;97780.50;29395;214;63024;-54
2023/10/01 02:23:26;;;;;;;0.50;0.50;;;;;;;12.25;86.74;97773.44;29395;205;63004;-54
2023/10/01 02:23:58;;;;;;;0.50;0.50;;;;;;;12.26;86.98;97772.34;29395;229;63008;-54
2023/10/01 02:25:38;;;;;;;0.50;0.50;;;;;;;12.25;87.03;97776.16;29395;209;63009;-54
2023/10/01 02:26:12;;;;;;;0.50;0.50;;;;;;;12.24;87.21;97774.53;29395;203;63005;-54
2023/10/01 02:26:46;;;;;;;0.50;0.50;;;;;;;12.20;87.17;97777.00;29395;208;63009;-54
2023/10/01 02:27:19;;;;;;;0.50;0.50;;;;;;;12.18;87.17;97773.75;29395;250;63005;-54
2023/10/01 02:28:06;;;;;;;0.50;0.50;;;;;;;12.18;87.06;97771.03;29395;266;63009;-54
2023/10/01 02:28:37;;;;;;;0.45;0.45;;;;;;;12.18;87.41;97770.22;29395;238;63018;-63
2023/10/01 02:29:12;;;;;;;0.50;0.50;;;;;;;12.18;87.52;97772.94;29395;229;63009;-54
2023/10/01 02:30:12;;;;;;;0.50;0.50;;;;;;;12.18;87.73;97776.47;29394;214;64009;-54
2023/10/01 02:30:40;;;;;;;0.50;0.50;;;;;;;12.18;87.58;97775.66;29394;204;64013;-55
2023/10/01 02:31:11;;;;;;;0.50;0.50;;;;;;;12.17;87.44;97776.75;29395;202;63016;-55
2023/10/01 02:31:48;;;;;;;0.50;0.50;;;;;;;12.19;87.65;97777.28;29395;198;63008;-54
2023/10/01 02:32:19;;;;;;;0.50;0.50;;;;;;;12.19;87.63;97774.56;29395;198;63005;-54
2023/10/01 02:34:00;;;;;;;0.50;0.50;;;;;;;12.21;87.51;97772.38;29395;227;63005;-55
2023/10/01 02:34:32;;;;;;;0.50;0.50;;;;;;;12.19;87.63;97766.41;29395;238;63009;-54
2023/10/01 02:35:34;;;;;;;0.50;0.50;;;;;;;12.17;87.59;97774.03;29394;223;64009;-55
2023/10/01 02:35:58;;;;;;;0.50;0.50;;;;;;;12.19;87.48;97774.56;29395;196;63009;-54
2023/10/01 02:36:30;;;;;;;0.50;0.50;;;;;;;12.20;87.61;97770.75;29395;208;63004;-55
2023/10/01 02:37:06;;;;;;;0.50;0.50;;;;;;;12.22;87.38;97774.00;29395;230;63024;-55
2023/10/01 02:37:39;;;;;;;0.50;0.50;;;;;;;12.20;87.01;97771.56;29395;234;63004;-54
2023/10/01 02:39:00;;;;;;;0.50;0.50;;;;;;;12.20;87.51;97773.47;29395;237;63007;-54
2023/10/01 02:39:31;;;;;;;0.50;0.50;;;;;;;12.20;87.25;97771.56;29394;211;64014;-55
2023/10/01 02:40:17;;;;;;;0.50;0.50;;;;;;;12.20;87.26;97777.00;29394;234;64009;-55
2023/10/01 02:40:49;;;;;;;0.60;0.60;;;;;;;12.21;86.81;97770.47;29395;249;63009;-54
2023/10/01 02:41:25;;;;;;;0.50;0.50;;;;;;;12.23;87.03;97773.72;29395;216;63005;-54
2023/10/01 02:42:57;;;;;;;1.17;1.17;;;;;;;12.19;87.33;97769.13;29395;233;63005;-57
2023/10/01 02:43:34;;;;;;;0.50;0.50;;;;;;;12.18;87.08;97772.94;29395;233;63009;-54
2023/10/01 02:44:11;;;;;;;0.50;0.50;;;;;;;12.20;86.95;97768.84;29395;213;63004;-55
2023/10/01 02:44:47;;;;;;;0.50;0.50;;;;;;;12.22;87.17;97768.56;29395;263;63009;-54
2023/10/01 02:45:31;;;;;;;0.50;0.50;;;;;;;12.18;86.53;97767.50;29395;267;63004;-54
2023/10/01 02:46:07;;;;;;;0.50;0.50;;;;;;;12.11;87.04;97773.28;29395;196;63009;-55
2023/10/01 02:46:38;;;;;;;0.50;0.50;;;;;;;12.08;86.94;97769.22;29395;243;63015;-54
2023/10/01 02:47:16;;;;;;;0.50;0.50;;;;;;;12.06;87.57;97771.41;29394;211;64014;-55
2023/10/01 02:48:12;;;;;;;0.50;0.50;;;;;;;12.04;87.74;97773.59;29394;311;64009;-55
2023/10/01 02:48:41;;;;;;;0.50;0.50;;;;;;;12.03;nan;97766.50;29417;237;63009;-54
2023/10/01 02:49:12;;;;;;;1.15;1.15;;;;;;;12.00;88.04;97767.06;29395;226;63005;-55
2023/10/01 02:49:49;;;;;;;0.60;0.60;;;;;;;11.98;87.84;97769.25;29395;243;63009;-54
2023/10/01 02:50:20;;;;;;;0.50;0.50;;;;;;;11.96;88.09;97765.19;29395;212;63005;-54
2023/10/01 02:50:54;;;;;;;0.47;0.47;;;;;;;11.94;88.09;97762.75;29395;291;63009;-54
2023/10/01 02:51:37;;;;;;;0.50;0.50;;;;;;;11.93;88.44;97766.56;29395;237;63004;-54
2023/10/01 02:52:09;;;;;;;0.50;0.50;;;;;;;11.91;88.31;97768.75;29395;320;63009;-54
2023/10/01 02:52:44;;;;;;;0.50;0.50;;;;;;;11.90;88.51;97764.41;29395;221;63004;-54